ポンペイ島 の空港の天気 - METARとTAF

ポンペイ国際空港 ( PTPN / PNI ) - ミクロネシア連邦 ポンペイ島
飛行場実況気象(Metar)
観測時間04/27 14:50 +11 (04/27 03:50 UTC)
風向・風速東北東 4m/s
視程10km以上
天気現象
全天の8割程度の雲 雲底高度 550m
全天の8割程度の雲 雲底高度 3960m
全天を覆う雲 雲底高度 9140m
気温29℃
湿度79%
気圧1007hPa
METARPTPN 270350Z 07007KT 15SM BKN018 BKN130 OVC300 29/25 A2974 RMK LAST
過去の天気等 Google飛行場航空写真 Wunderground天気予報

過去48時間のMETAR

飛行場予報(TAF)
発表時間: 4/27 14:22 +11 (4/27 03:22 UTC)
予報対象時間: 27日14時 +11 ~ 28日11時 +11
風向・風速東 4m/s
視程10km以上
天気現象周辺でしゅう雨
全天の8割程度の雲 雲底高度 550m
全天を覆う雲 雲底高度 3,960m
PTPN 270322Z 2703/2724 10007KT P6SM VCSH BKN018 OVC130